»·PEaware :: N32314 KONT-KSBA

N32314 :: KONT-KSBA

FLIGHT INFORMATION

Flight Status: Arrived
Operator: Privately registered:
United States
More flights under this callsign
Pilot: John O. (31453)
Aircraft: CESSNA 172 SKYHAWK
(C172)
More flights by this aircraft type
Origin: KONT Ontario Intl
United States
Destination: KSBA Santa Barbara Mun
United States
More flights between these airports :: More routes between these airports
Route: +
File this flight plan on PilotEdge
Remarks:
Altitude:
(Current/Filed)
0ft
Speed:
(Current/Filed)
0kts
Departed: 11-Nov-20 08:19 AM
Arrived: 11-Nov-20 09:54 AM
Distance/Time
Traveled:
113nm/1:35
Distance/Time
To Go:
Arrived

Flight Plot

Page will automatically refresh every two minutes.


Map Options




Map Legend


Flown Route
Filed Route
Departure Airport
Arrival Airport
Navaid (VOR, NDB)
Fix

Horizontal Profiles

Position Reports

Time Latitude Longitude Heading Altitude Ground
Speed
11-Nov-20 08:17 34.096871 -117.833207 283 4617ft 118kts
11-Nov-20 08:18 34.103689 -117.870089 281 5110ft 109kts
11-Nov-20 08:19 34.109239 -117.905306 279 5613ft 106kts
11-Nov-20 08:20 34.113699 -117.940307 277 6118ft 104kts
11-Nov-20 08:21 34.120940 -117.973021 280 6612ft 101kts
11-Nov-20 08:22 34.126924 -118.005908 281 7120ft 98kts
11-Nov-20 08:23 34.132279 -118.037732 281 7617ft 95kts
11-Nov-20 08:24 34.137507 -118.068477 282 8117ft 91kts
11-Nov-20 08:25 34.142688 -118.098866 282 8469ft 100kts
11-Nov-20 08:26 34.148752 -118.134538 282 8488ft 113kts
11-Nov-20 08:27 34.152394 -118.172322 275 8489ft 114kts
11-Nov-20 08:28 34.154951 -118.210536 275 8489ft 114kts
11-Nov-20 08:29 34.157473 -118.248949 276 8492ft 115kts
11-Nov-20 08:30 34.159973 -118.287385 276 8490ft 114kts
11-Nov-20 08:31 34.162463 -118.325861 276 8490ft 114kts
11-Nov-20 08:32 34.164890 -118.363594 276 8486ft 106kts
11-Nov-20 08:33 34.167070 -118.397622 277 8491ft 98kts
11-Nov-20 08:34 34.169182 -118.430700 277 8492ft 99kts
11-Nov-20 08:35 34.171231 -118.462949 276 8489ft 100kts
11-Nov-20 08:36 34.173362 -118.496651 277 8487ft 100kts
11-Nov-20 08:37 34.175484 -118.530347 277 8488ft 100kts
11-Nov-20 08:38 34.177604 -118.564153 277 8488ft 101kts
11-Nov-20 08:39 34.179121 -118.588446 277 8489ft 101kts
11-Nov-20 08:40 34.179121 -118.588446 277 8489ft 101kts
11-Nov-20 08:41 34.179121 -118.588446 277 8489ft 101kts
11-Nov-20 08:42 34.179121 -118.588446 277 8489ft 101kts
11-Nov-20 08:43 34.179121 -118.588446 277 8489ft 101kts
11-Nov-20 08:44 34.179121 -118.588446 277 8489ft 101kts
11-Nov-20 08:45 34.179121 -118.588446 277 8489ft 101kts
11-Nov-20 08:46 34.179121 -118.588446 277 8489ft 101kts
11-Nov-20 08:47 34.179121 -118.588446 277 8489ft 101kts
11-Nov-20 08:48 34.179121 -118.588446 277 8489ft 101kts
11-Nov-20 08:49 34.179121 -118.588446 277 8489ft 101kts
11-Nov-20 08:50 34.179121 -118.588446 277 8489ft 101kts
11-Nov-20 08:51 34.179121 -118.588446 277 8489ft 101kts
11-Nov-20 08:52 34.179121 -118.588446 277 8489ft 101kts
11-Nov-20 08:53 34.179121 -118.588446 277 8489ft 101kts
11-Nov-20 08:54 34.179121 -118.588446 277 8489ft 101kts
11-Nov-20 08:56 34.179121 -118.588446 277 8489ft 101kts
11-Nov-20 08:57 34.180533 -118.611110 277 8480ft 101kts
11-Nov-20 08:58 34.182631 -118.644941 276 8476ft 101kts
11-Nov-20 08:59 34.184701 -118.678489 276 8467ft 99kts
11-Nov-20 09:00 34.186744 -118.711684 276 8457ft 98kts
11-Nov-20 09:01 34.188742 -118.744324 277 8483ft 98kts
11-Nov-20 09:02 34.190777 -118.777701 277 8476ft 100kts
11-Nov-20 09:03 34.192816 -118.811310 277 8478ft 100kts
11-Nov-20 09:04 34.194858 -118.845130 277 8479ft 101kts
11-Nov-20 09:05 34.196909 -118.879243 277 8472ft 102kts
11-Nov-20 09:06 34.198954 -118.913407 277 8474ft 102kts
11-Nov-20 09:07 34.200991 -118.947595 277 8474ft 102kts
11-Nov-20 09:08 34.203069 -118.982693 277 8473ft 106kts
11-Nov-20 09:09 34.205121 -119.017502 277 8464ft 101kts
11-Nov-20 09:10 34.207107 -119.051281 277 8471ft 100kts
11-Nov-20 09:11 34.209079 -119.085015 277 8471ft 100kts
11-Nov-20 09:11 34.210717 -119.113205 277 8472ft 100kts
11-Nov-20 09:13 34.213002 -119.152656 277 8472ft 100kts
11-Nov-20 09:13 34.214620 -119.180743 277 8472ft 100kts
11-Nov-20 09:15 34.216883 -119.220179 278 8472ft 100kts
11-Nov-20 09:16 34.218796 -119.253722 278 8474ft 100kts
11-Nov-20 09:16 34.220399 -119.281946 278 8473ft 100kts
11-Nov-20 09:17 34.222302 -119.315613 278 8474ft 100kts
11-Nov-20 09:18 34.224201 -119.349352 278 8475ft 100kts
11-Nov-20 09:19 34.226088 -119.383064 279 8476ft 100kts
11-Nov-20 09:20 34.227961 -119.416689 279 8476ft 100kts
11-Nov-20 09:21 34.229835 -119.450482 279 8470ft 100kts
11-Nov-20 09:22 34.231701 -119.484314 279 8468ft 100kts
11-Nov-20 09:23 34.233547 -119.517953 279 8469ft 100kts
11-Nov-20 09:24 34.235389 -119.551687 279 8470ft 100kts
11-Nov-20 09:25 34.237212 -119.585233 279 8470ft 99kts
11-Nov-20 09:26 34.239009 -119.618474 279 8471ft 99kts
11-Nov-20 09:27 34.240801 -119.651793 279 8472ft 99kts
11-Nov-20 09:28 34.242583 -119.685096 279 8473ft 98kts
11-Nov-20 09:29 34.244345 -119.718195 279 8475ft 98kts
11-Nov-20 09:30 34.246098 -119.751282 279 8475ft 98kts
11-Nov-20 09:31 34.248018 -119.787725 278 8045ft 115kts
11-Nov-20 09:32 34.249928 -119.824237 278 7526ft 105kts
11-Nov-20 09:33 34.251745 -119.859076 278 7027ft 103kts
11-Nov-20 09:34 34.253549 -119.893889 278 6531ft 104kts
11-Nov-20 09:35 34.255371 -119.929248 277 6030ft 106kts
11-Nov-20 09:36 34.257215 -119.965238 277 5529ft 108kts
11-Nov-20 09:37 34.259072 -120.001689 276 5029ft 109kts
11-Nov-20 09:38 34.260946 -120.038707 275 4528ft 111kts
11-Nov-20 09:39 34.262835 -120.076255 274 4027ft 112kts
11-Nov-20 09:40 34.287888 -120.085851 358 3528ft 111kts
11-Nov-20 09:41 34.319036 -120.086654 359 3027ft 112kts
11-Nov-20 09:42 34.349205 -120.087314 359 2786ft 101kts
11-Nov-20 09:43 34.376992 -120.087943 358 2780ft 102kts
11-Nov-20 09:44 34.406018 -120.088526 358 2773ft 104kts
11-Nov-20 09:45 34.422750 -120.070941 90 2540ft 117kts
11-Nov-20 09:46 34.423629 -120.031962 88 2031ft 114kts
11-Nov-20 09:47 34.424427 -119.997170 88 1777ft 91kts
11-Nov-20 09:48 34.425105 -119.966284 88 1778ft 96kts
11-Nov-20 09:49 34.425792 -119.934505 88 1319ft 85kts
11-Nov-20 09:50 34.426385 -119.907141 88 876ft 80kts
11-Nov-20 09:51 34.426958 -119.880049 88 432ft 80kts
11-Nov-20 09:52 34.427538 -119.855316 88 54ft 64kts
11-Nov-20 09:53 34.426899 -119.846330 177 11ft 0kts
11-Nov-20 09:54 34.426899 -119.846330 177 11ft 0kts
11-Nov-20 09:55 34.426624 -119.841657 101 16ft 17kts
11-Nov-20 09:56 34.423248 -119.839504 120 19ft 11kts
11-Nov-20 09:57 34.422053 -119.836571 163 17ft 8kts
11-Nov-20 09:58 34.421896 -119.836181 260 17ft 0kts
11-Nov-20 09:59 34.421896 -119.836181 260 17ft 0kts
11-Nov-20 10:00 34.421896 -119.836181 260 17ft 0kts
11-Nov-20 10:01 34.421896 -119.836181 260 17ft 0kts
11-Nov-20 10:02 34.421896 -119.836181 260 17ft 0kts
11-Nov-20 10:03 34.421896 -119.836181 260 17ft 0kts
11-Nov-20 10:04 34.421896 -119.836181 260 17ft 0kts
11-Nov-20 10:05 34.421896 -119.836181 260 17ft 0kts
11-Nov-20 10:06 34.421896 -119.836181 260 17ft 0kts
11-Nov-20 10:07 34.421896 -119.836181 260 17ft 0kts

Navigation Log

Ident Type
Flight plan parsing failed, navigation log unavailable